COMO2: Grand River, Commerce, OK

                                SHEF ID:       COMO2     Neosho River nr Commerce, OK
STATION TYPE:
Regulating: Stage = 15.00, Flow = 21598

PRECIP STAGE STAGE(2) RIV-FLOW BAT-LOAD
in ft ft cfs volt
Ccp-Rev Ccp-Rev Ccp-Rev Ccp-Rev Ccp-Rev
(America/Chicago)
04/29 00:00 0.00 11.26 ---- 14939 12.33
04/29 01:00 0.00 11.20 ---- 14833 12.31
04/29 02:00 0.00 11.15 ---- 14744 12.28
04/29 03:00 0.00 11.09 ---- 14639 12.27
04/29 04:00 0.00 10.99 ---- 14462 12.25
04/29 05:00 0.00 10.91 ---- 14321 12.23
04/29 06:00 0.00 10.80 ---- 14128 12.22
04/29 07:00 0.00 10.69 ---- 13934 12.21
04/29 08:00 0.00 10.56 ---- 13705 12.68
04/29 09:00 0.00 10.41 ---- 13442 13.28
04/29 10:00 0.00 10.27 ---- 13196 13.39
04/29 11:00 0.00 10.10 ---- 12898 13.26
04/29 12:00 0.00 9.92 ---- 12595 13.26
04/29 13:00 0.00 9.73 ---- 12292 13.06
04/29 14:00 0.00 9.52 ---- 11958 13.06
04/29 15:00 0.00 9.31 ---- 11624 13.02
04/29 16:00 0.00 9.09 ---- 11275 12.90
04/29 17:00 0.00 8.87 ---- 10926 12.86
04/29 18:00 0.00 8.65 ---- 10578 12.93
04/29 19:00 0.00 8.42 ---- 10214 12.90
04/29 20:00 0.00 8.20 ---- 9867 12.73
04/29 21:00 0.00 7.97 ---- 9505 12.53
04/29 22:00 0.00 7.76 ---- 9174 12.44
04/29 23:00 0.00 7.54 ---- 8823 12.40
Data processed at Thu 30Apr2026 04:36 GMT

NOTICE: If you are parsing this page

Please convert to using our Data API. Starting early 2026 we will be migrating to: https://water.usace.army.mil with modern pages rendered in JavaScript. When this migration completes you will no longer be able to scrape this page! CWMSDataAPI (CDA)

Timeseries IDs (TSIDs)

TSIDs used from left to right in the data table
COMM.Precip-Inc.Total.1Hour.1Hour.Ccp-Rev
COMM.Stage.Inst.1Hour.0.Ccp-Rev
COMM.Stage-Alt.Inst.1Hour.0.Ccp-Rev
COMM.Flow.Inst.1Hour.0.Ccp-Rev
COMM.Volt-Battery Load.Inst.1Hour.0.Ccp-Rev

                            

All information presented herein is the property of the government of the United States of America and may be revised or deleted at any time without prior notice. Dissemination of this information without the expressed written consent of the Public Affairs Office, Tulsa District U.S. Army Corps of Engineers is strictly prohibited. These data are gathered electronically and, as presented, have NOT undergone any form of quality control. These data are NOT guaranteed to be valid or correct.